sensor_id;sensor_type;location;lat;lon;timestamp;P1;durP1;ratioP1;P2;durP2;ratioP2
25279;SDS011;13225;47.804;12.116;2023-03-02T00:04:15;79.47;;;29.95;;
25279;SDS011;13225;47.804;12.116;2023-03-02T00:06:44;81.10;;;30.08;;
25279;SDS011;13225;47.804;12.116;2023-03-02T00:09:12;84.78;;;30.92;;
25279;SDS011;13225;47.804;12.116;2023-03-02T00:11:38;81.97;;;29.98;;
25279;SDS011;13225;47.804;12.116;2023-03-02T00:14:04;79.47;;;30.80;;
25279;SDS011;13225;47.804;12.116;2023-03-02T00:16:30;81.32;;;29.88;;
25279;SDS011;13225;47.804;12.116;2023-03-02T00:18:56;82.55;;;30.02;;
25279;SDS011;13225;47.804;12.116;2023-03-02T00:21:21;75.20;;;30.13;;
25279;SDS011;13225;47.804;12.116;2023-03-02T00:23:48;78.30;;;29.00;;
25279;SDS011;13225;47.804;12.116;2023-03-02T00:26:15;73.60;;;29.90;;
25279;SDS011;13225;47.804;12.116;2023-03-02T00:28:41;77.05;;;29.88;;
25279;SDS011;13225;47.804;12.116;2023-03-02T00:31:06;85.97;;;31.08;;
25279;SDS011;13225;47.804;12.116;2023-03-02T00:33:32;80.03;;;30.05;;
25279;SDS011;13225;47.804;12.116;2023-03-02T00:35:58;80.22;;;29.02;;
25279;SDS011;13225;47.804;12.116;2023-03-02T00:38:24;82.50;;;30.33;;
25279;SDS011;13225;47.804;12.116;2023-03-02T00:40:51;83.20;;;30.17;;
25279;SDS011;13225;47.804;12.116;2023-03-02T00:43:19;83.80;;;30.48;;
25279;SDS011;13225;47.804;12.116;2023-03-02T00:45:47;84.10;;;31.98;;
25279;SDS011;13225;47.804;12.116;2023-03-02T00:48:12;83.75;;;31.30;;
25279;SDS011;13225;47.804;12.116;2023-03-02T00:50:38;80.25;;;29.45;;
25279;SDS011;13225;47.804;12.116;2023-03-02T00:53:06;88.47;;;31.35;;
25279;SDS011;13225;47.804;12.116;2023-03-02T00:55:33;89.47;;;33.65;;
25279;SDS011;13225;47.804;12.116;2023-03-02T00:57:59;91.28;;;32.15;;
25279;SDS011;13225;47.804;12.116;2023-03-02T01:00:24;83.53;;;30.10;;
25279;SDS011;13225;47.804;12.116;2023-03-02T01:02:52;86.03;;;30.67;;
25279;SDS011;13225;47.804;12.116;2023-03-02T01:05:18;80.45;;;29.27;;
25279;SDS011;13225;47.804;12.116;2023-03-02T01:07:44;83.15;;;30.52;;
25279;SDS011;13225;47.804;12.116;2023-03-02T01:10:09;76.30;;;29.13;;
25279;SDS011;13225;47.804;12.116;2023-03-02T01:12:36;76.05;;;28.33;;
25279;SDS011;13225;47.804;12.116;2023-03-02T01:15:01;76.50;;;27.60;;
25279;SDS011;13225;47.804;12.116;2023-03-02T01:17:27;78.00;;;28.75;;
25279;SDS011;13225;47.804;12.116;2023-03-02T01:19:53;78.22;;;29.42;;
25279;SDS011;13225;47.804;12.116;2023-03-02T01:22:19;85.10;;;30.20;;
25279;SDS011;13225;47.804;12.116;2023-03-02T01:24:46;86.40;;;30.90;;
25279;SDS011;13225;47.804;12.116;2023-03-02T01:27:12;78.18;;;28.25;;
25279;SDS011;13225;47.804;12.116;2023-03-02T01:29:37;81.75;;;29.42;;
25279;SDS011;13225;47.804;12.116;2023-03-02T01:32:03;83.63;;;30.83;;
25279;SDS011;13225;47.804;12.116;2023-03-02T01:34:29;86.45;;;30.65;;
25279;SDS011;13225;47.804;12.116;2023-03-02T01:36:55;78.40;;;29.27;;
25279;SDS011;13225;47.804;12.116;2023-03-02T01:39:20;80.10;;;28.75;;
25279;SDS011;13225;47.804;12.116;2023-03-02T01:41:49;76.35;;;27.45;;
25279;SDS011;13225;47.804;12.116;2023-03-02T01:46:57;80.68;;;27.83;;
25279;SDS011;13225;47.804;12.116;2023-03-02T01:49:23;82.30;;;29.27;;
25279;SDS011;13225;47.804;12.116;2023-03-02T01:51:49;81.38;;;29.60;;
25279;SDS011;13225;47.804;12.116;2023-03-02T01:54:16;78.82;;;28.85;;
25279;SDS011;13225;47.804;12.116;2023-03-02T01:56:47;97.95;;;34.45;;
25279;SDS011;13225;47.804;12.116;2023-03-02T02:01:49;74.88;;;26.98;;
25279;SDS011;13225;47.804;12.116;2023-03-02T02:04:16;82.70;;;29.27;;
25279;SDS011;13225;47.804;12.116;2023-03-02T02:06:45;85.97;;;29.33;;
25279;SDS011;13225;47.804;12.116;2023-03-02T02:09:15;86.03;;;31.20;;
25279;SDS011;13225;47.804;12.116;2023-03-02T02:11:43;88.10;;;32.47;;
25279;SDS011;13225;47.804;12.116;2023-03-02T02:14:10;81.78;;;30.42;;
25279;SDS011;13225;47.804;12.116;2023-03-02T02:16:36;80.03;;;29.17;;
25279;SDS011;13225;47.804;12.116;2023-03-02T02:19:09;73.40;;;27.17;;
25279;SDS011;13225;47.804;12.116;2023-03-02T02:21:56;78.68;;;26.95;;
25279;SDS011;13225;47.804;12.116;2023-03-02T02:27:05;80.35;;;28.45;;
25279;SDS011;13225;47.804;12.116;2023-03-02T02:29:33;83.70;;;29.23;;
25279;SDS011;13225;47.804;12.116;2023-03-02T02:32:12;77.13;;;28.02;;
25279;SDS011;13225;47.804;12.116;2023-03-02T02:34:45;80.15;;;28.60;;
25279;SDS011;13225;47.804;12.116;2023-03-02T02:39:43;80.03;;;27.00;;
25279;SDS011;13225;47.804;12.116;2023-03-02T02:42:17;76.80;;;27.83;;
25279;SDS011;13225;47.804;12.116;2023-03-02T02:44:51;78.57;;;27.20;;
25279;SDS011;13225;47.804;12.116;2023-03-02T02:47:21;78.80;;;28.13;;
25279;SDS011;13225;47.804;12.116;2023-03-02T02:49:47;82.85;;;28.58;;
25279;SDS011;13225;47.804;12.116;2023-03-02T02:52:17;89.47;;;27.98;;
25279;SDS011;13225;47.804;12.116;2023-03-02T02:54:45;72.05;;;26.90;;
25279;SDS011;13225;47.804;12.116;2023-03-02T02:57:13;74.00;;;27.58;;
25279;SDS011;13225;47.804;12.116;2023-03-02T02:59:48;77.38;;;26.83;;
25279;SDS011;13225;47.804;12.116;2023-03-02T03:02:17;75.07;;;26.00;;
25279;SDS011;13225;47.804;12.116;2023-03-02T03:04:46;77.18;;;28.90;;
25279;SDS011;13225;47.804;12.116;2023-03-02T03:07:16;79.53;;;29.15;;
25279;SDS011;13225;47.804;12.116;2023-03-02T03:09:46;74.65;;;28.20;;
25279;SDS011;13225;47.804;12.116;2023-03-02T03:14:45;75.15;;;26.30;;
25279;SDS011;13225;47.804;12.116;2023-03-02T03:17:11;79.40;;;27.15;;
25279;SDS011;13225;47.804;12.116;2023-03-02T03:19:41;84.70;;;30.17;;
25279;SDS011;13225;47.804;12.116;2023-03-02T03:22:08;79.32;;;28.02;;
25279;SDS011;13225;47.804;12.116;2023-03-02T03:24:38;79.53;;;28.55;;
25279;SDS011;13225;47.804;12.116;2023-03-02T03:27:06;73.43;;;28.60;;
25279;SDS011;13225;47.804;12.116;2023-03-02T03:29:33;77.50;;;28.80;;
25279;SDS011;13225;47.804;12.116;2023-03-02T03:32:00;80.57;;;29.63;;
25279;SDS011;13225;47.804;12.116;2023-03-02T03:34:27;81.00;;;29.77;;
25279;SDS011;13225;47.804;12.116;2023-03-02T03:36:54;78.40;;;29.25;;
25279;SDS011;13225;47.804;12.116;2023-03-02T03:39:25;83.37;;;30.27;;
25279;SDS011;13225;47.804;12.116;2023-03-02T03:41:52;81.88;;;29.10;;
25279;SDS011;13225;47.804;12.116;2023-03-02T03:44:18;75.72;;;28.35;;
25279;SDS011;13225;47.804;12.116;2023-03-02T03:46:43;78.72;;;29.75;;
25279;SDS011;13225;47.804;12.116;2023-03-02T03:49:09;74.47;;;27.52;;
25279;SDS011;13225;47.804;12.116;2023-03-02T03:51:35;79.78;;;29.10;;
25279;SDS011;13225;47.804;12.116;2023-03-02T03:54:01;75.45;;;28.92;;
25279;SDS011;13225;47.804;12.116;2023-03-02T03:56:29;80.60;;;27.75;;
25279;SDS011;13225;47.804;12.116;2023-03-02T03:58:58;83.15;;;30.40;;
25279;SDS011;13225;47.804;12.116;2023-03-02T04:01:41;83.15;;;28.95;;
25279;SDS011;13225;47.804;12.116;2023-03-02T04:04:11;73.60;;;25.60;;
25279;SDS011;13225;47.804;12.116;2023-03-02T04:06:42;88.03;;;29.55;;
25279;SDS011;13225;47.804;12.116;2023-03-02T04:09:07;76.40;;;27.92;;
25279;SDS011;13225;47.804;12.116;2023-03-02T04:11:35;78.85;;;28.85;;
25279;SDS011;13225;47.804;12.116;2023-03-02T04:14:02;87.20;;;30.15;;
25279;SDS011;13225;47.804;12.116;2023-03-02T04:16:28;82.38;;;31.17;;
25279;SDS011;13225;47.804;12.116;2023-03-02T04:18:55;90.50;;;31.08;;
25279;SDS011;13225;47.804;12.116;2023-03-02T04:21:21;86.63;;;31.27;;
25279;SDS011;13225;47.804;12.116;2023-03-02T04:23:47;88.95;;;32.97;;
25279;SDS011;13225;47.804;12.116;2023-03-02T04:26:13;90.53;;;33.25;;
25279;SDS011;13225;47.804;12.116;2023-03-02T04:28:39;100.78;;;33.80;;
25279;SDS011;13225;47.804;12.116;2023-03-02T04:31:04;91.82;;;32.38;;
25279;SDS011;13225;47.804;12.116;2023-03-02T04:33:30;100.03;;;32.85;;
25279;SDS011;13225;47.804;12.116;2023-03-02T04:35:56;95.28;;;32.60;;
25279;SDS011;13225;47.804;12.116;2023-03-02T04:38:22;87.57;;;30.27;;
25279;SDS011;13225;47.804;12.116;2023-03-02T04:40:48;108.68;;;36.63;;
25279;SDS011;13225;47.804;12.116;2023-03-02T04:43:13;120.68;;;40.35;;
25279;SDS011;13225;47.804;12.116;2023-03-02T04:45:39;121.00;;;38.95;;
25279;SDS011;13225;47.804;12.116;2023-03-02T04:48:05;71.32;;;25.13;;
25279;SDS011;13225;47.804;12.116;2023-03-02T04:50:32;117.32;;;35.55;;
25279;SDS011;13225;47.804;12.116;2023-03-02T04:52:58;95.60;;;33.65;;
25279;SDS011;13225;47.804;12.116;2023-03-02T04:55:24;92.05;;;32.25;;
25279;SDS011;13225;47.804;12.116;2023-03-02T04:57:50;77.07;;;27.90;;
25279;SDS011;13225;47.804;12.116;2023-03-02T05:00:17;101.68;;;35.42;;
25279;SDS011;13225;47.804;12.116;2023-03-02T05:02:45;109.85;;;30.95;;
25279;SDS011;13225;47.804;12.116;2023-03-02T05:05:13;120.43;;;34.17;;
25279;SDS011;13225;47.804;12.116;2023-03-02T05:07:44;166.13;;;38.88;;
25279;SDS011;13225;47.804;12.116;2023-03-02T05:10:11;162.73;;;38.72;;
25279;SDS011;13225;47.804;12.116;2023-03-02T05:12:38;73.70;;;24.25;;
25279;SDS011;13225;47.804;12.116;2023-03-02T05:15:40;121.68;;;34.30;;
25279;SDS011;13225;47.804;12.116;2023-03-02T05:18:07;104.88;;;29.83;;
25279;SDS011;13225;47.804;12.116;2023-03-02T05:20:35;72.78;;;24.15;;
25279;SDS011;13225;47.804;12.116;2023-03-02T05:23:01;125.82;;;32.47;;
25279;SDS011;13225;47.804;12.116;2023-03-02T05:25:29;164.70;;;34.35;;
25279;SDS011;13225;47.804;12.116;2023-03-02T05:27:56;112.10;;;30.67;;
25279;SDS011;13225;47.804;12.116;2023-03-02T05:30:22;175.05;;;35.05;;
25279;SDS011;13225;47.804;12.116;2023-03-02T05:32:49;107.40;;;33.25;;
25279;SDS011;13225;47.804;12.116;2023-03-02T05:35:16;96.55;;;29.35;;
25279;SDS011;13225;47.804;12.116;2023-03-02T05:37:42;157.55;;;38.47;;
25279;SDS011;13225;47.804;12.116;2023-03-02T05:40:10;133.07;;;39.10;;
25279;SDS011;13225;47.804;12.116;2023-03-02T05:42:37;153.82;;;42.42;;
25279;SDS011;13225;47.804;12.116;2023-03-02T05:45:04;131.65;;;38.03;;
25279;SDS011;13225;47.804;12.116;2023-03-02T05:47:31;140.90;;;39.60;;
25279;SDS011;13225;47.804;12.116;2023-03-02T05:49:56;156.63;;;38.85;;
25279;SDS011;13225;47.804;12.116;2023-03-02T05:52:23;108.30;;;33.67;;
25279;SDS011;13225;47.804;12.116;2023-03-02T05:54:49;133.00;;;36.22;;
25279;SDS011;13225;47.804;12.116;2023-03-02T05:57:15;157.25;;;43.83;;
25279;SDS011;13225;47.804;12.116;2023-03-02T05:59:40;81.90;;;29.00;;
25279;SDS011;13225;47.804;12.116;2023-03-02T06:02:06;149.77;;;38.38;;
25279;SDS011;13225;47.804;12.116;2023-03-02T06:04:31;121.72;;;35.45;;
25279;SDS011;13225;47.804;12.116;2023-03-02T06:06:59;106.40;;;31.80;;
25279;SDS011;13225;47.804;12.116;2023-03-02T06:09:25;72.22;;;24.48;;
25279;SDS011;13225;47.804;12.116;2023-03-02T06:11:51;147.25;;;39.47;;
25279;SDS011;13225;47.804;12.116;2023-03-02T06:14:17;144.82;;;39.58;;
25279;SDS011;13225;47.804;12.116;2023-03-02T06:16:43;151.13;;;37.78;;
25279;SDS011;13225;47.804;12.116;2023-03-02T06:19:09;136.55;;;36.22;;
25279;SDS011;13225;47.804;12.116;2023-03-02T06:21:35;136.45;;;36.47;;
25279;SDS011;13225;47.804;12.116;2023-03-02T06:24:00;173.15;;;37.50;;
25279;SDS011;13225;47.804;12.116;2023-03-02T06:26:26;131.10;;;37.13;;
25279;SDS011;13225;47.804;12.116;2023-03-02T06:28:52;114.13;;;34.20;;
25279;SDS011;13225;47.804;12.116;2023-03-02T06:31:18;123.43;;;32.13;;
25279;SDS011;13225;47.804;12.116;2023-03-02T06:33:43;106.60;;;33.83;;
25279;SDS011;13225;47.804;12.116;2023-03-02T06:36:10;105.65;;;34.90;;
25279;SDS011;13225;47.804;12.116;2023-03-02T06:38:36;103.00;;;33.47;;
25279;SDS011;13225;47.804;12.116;2023-03-02T06:41:02;105.88;;;34.45;;
25279;SDS011;13225;47.804;12.116;2023-03-02T06:43:28;107.03;;;34.60;;
25279;SDS011;13225;47.804;12.116;2023-03-02T06:45:53;93.70;;;31.38;;
25279;SDS011;13225;47.804;12.116;2023-03-02T06:48:19;107.95;;;33.22;;
25279;SDS011;13225;47.804;12.116;2023-03-02T06:50:45;84.85;;;29.20;;
25279;SDS011;13225;47.804;12.116;2023-03-02T06:53:10;85.07;;;28.55;;
25279;SDS011;13225;47.804;12.116;2023-03-02T06:55:36;97.03;;;32.67;;
25279;SDS011;13225;47.804;12.116;2023-03-02T06:58:01;107.85;;;32.33;;
25279;SDS011;13225;47.804;12.116;2023-03-02T07:00:27;67.28;;;27.00;;
25279;SDS011;13225;47.804;12.116;2023-03-02T07:02:53;154.40;;;42.15;;
25279;SDS011;13225;47.804;12.116;2023-03-02T07:05:20;74.50;;;27.17;;
25279;SDS011;13225;47.804;12.116;2023-03-02T07:07:46;101.55;;;29.23;;
25279;SDS011;13225;47.804;12.116;2023-03-02T07:10:12;112.13;;;31.58;;
25279;SDS011;13225;47.804;12.116;2023-03-02T07:12:38;105.82;;;33.00;;
25279;SDS011;13225;47.804;12.116;2023-03-02T07:15:05;134.73;;;34.47;;
25279;SDS011;13225;47.804;12.116;2023-03-02T07:17:36;189.15;;;33.30;;
25279;SDS011;13225;47.804;12.116;2023-03-02T07:20:03;107.43;;;30.42;;
25279;SDS011;13225;47.804;12.116;2023-03-02T07:22:29;138.75;;;31.73;;
25279;SDS011;13225;47.804;12.116;2023-03-02T07:24:55;70.18;;;26.65;;
25279;SDS011;13225;47.804;12.116;2023-03-02T07:27:21;116.97;;;31.80;;
25279;SDS011;13225;47.804;12.116;2023-03-02T07:29:46;100.75;;;30.05;;
25279;SDS011;13225;47.804;12.116;2023-03-02T07:32:12;89.28;;;30.13;;
25279;SDS011;13225;47.804;12.116;2023-03-02T07:34:38;84.90;;;31.33;;
25279;SDS011;13225;47.804;12.116;2023-03-02T07:37:03;94.00;;;32.08;;
25279;SDS011;13225;47.804;12.116;2023-03-02T07:39:29;107.63;;;30.80;;
25279;SDS011;13225;47.804;12.116;2023-03-02T07:42:00;118.90;;;29.23;;
25279;SDS011;13225;47.804;12.116;2023-03-02T07:44:28;106.05;;;31.60;;
25279;SDS011;13225;47.804;12.116;2023-03-02T07:46:55;147.25;;;41.75;;
25279;SDS011;13225;47.804;12.116;2023-03-02T07:49:20;139.95;;;30.38;;
25279;SDS011;13225;47.804;12.116;2023-03-02T07:51:46;97.85;;;28.05;;
25279;SDS011;13225;47.804;12.116;2023-03-02T07:54:12;119.68;;;33.67;;
25279;SDS011;13225;47.804;12.116;2023-03-02T07:56:37;104.32;;;28.95;;
25279;SDS011;13225;47.804;12.116;2023-03-02T07:59:03;120.50;;;30.55;;
25279;SDS011;13225;47.804;12.116;2023-03-02T08:01:28;100.70;;;30.05;;
25279;SDS011;13225;47.804;12.116;2023-03-02T08:03:54;118.07;;;30.38;;
25279;SDS011;13225;47.804;12.116;2023-03-02T08:06:19;95.20;;;27.15;;
25279;SDS011;13225;47.804;12.116;2023-03-02T08:08:45;138.75;;;32.03;;
25279;SDS011;13225;47.804;12.116;2023-03-02T08:11:12;59.80;;;23.08;;
25279;SDS011;13225;47.804;12.116;2023-03-02T08:13:40;78.05;;;31.20;;
25279;SDS011;13225;47.804;12.116;2023-03-02T08:16:07;57.08;;;23.77;;
25279;SDS011;13225;47.804;12.116;2023-03-02T08:18:34;80.97;;;29.58;;
25279;SDS011;13225;47.804;12.116;2023-03-02T08:21:00;60.58;;;22.48;;
25279;SDS011;13225;47.804;12.116;2023-03-02T08:23:26;87.55;;;29.50;;
25279;SDS011;13225;47.804;12.116;2023-03-02T08:25:52;82.72;;;29.50;;
25279;SDS011;13225;47.804;12.116;2023-03-02T08:28:18;66.07;;;27.13;;
25279;SDS011;13225;47.804;12.116;2023-03-02T08:30:52;89.95;;;30.05;;
25279;SDS011;13225;47.804;12.116;2023-03-02T08:33:19;76.32;;;28.40;;
25279;SDS011;13225;47.804;12.116;2023-03-02T08:35:52;74.10;;;28.02;;
25279;SDS011;13225;47.804;12.116;2023-03-02T08:38:25;92.28;;;34.58;;
25279;SDS011;13225;47.804;12.116;2023-03-02T08:40:51;80.90;;;31.42;;
25279;SDS011;13225;47.804;12.116;2023-03-02T08:43:18;84.50;;;29.05;;
25279;SDS011;13225;47.804;12.116;2023-03-02T08:45:44;78.22;;;28.98;;
25279;SDS011;13225;47.804;12.116;2023-03-02T08:48:10;78.85;;;27.73;;
25279;SDS011;13225;47.804;12.116;2023-03-02T08:50:35;66.18;;;26.23;;
25279;SDS011;13225;47.804;12.116;2023-03-02T08:53:01;73.50;;;27.50;;
25279;SDS011;13225;47.804;12.116;2023-03-02T08:55:27;71.88;;;29.88;;
25279;SDS011;13225;47.804;12.116;2023-03-02T08:57:52;74.38;;;28.63;;
25279;SDS011;13225;47.804;12.116;2023-03-02T09:00:18;75.55;;;28.75;;
25279;SDS011;13225;47.804;12.116;2023-03-02T09:02:44;72.55;;;28.48;;
25279;SDS011;13225;47.804;12.116;2023-03-02T09:05:10;66.55;;;28.00;;
25279;SDS011;13225;47.804;12.116;2023-03-02T09:07:36;68.45;;;28.00;;
25279;SDS011;13225;47.804;12.116;2023-03-02T09:10:02;71.13;;;28.02;;
25279;SDS011;13225;47.804;12.116;2023-03-02T09:12:28;65.82;;;27.52;;
25279;SDS011;13225;47.804;12.116;2023-03-02T09:14:53;68.97;;;27.20;;
25279;SDS011;13225;47.804;12.116;2023-03-02T09:17:19;70.97;;;27.88;;
25279;SDS011;13225;47.804;12.116;2023-03-02T09:19:44;65.10;;;28.33;;
25279;SDS011;13225;47.804;12.116;2023-03-02T09:22:10;65.22;;;28.17;;
25279;SDS011;13225;47.804;12.116;2023-03-02T09:24:36;67.40;;;28.02;;
25279;SDS011;13225;47.804;12.116;2023-03-02T09:27:02;63.78;;;25.52;;
25279;SDS011;13225;47.804;12.116;2023-03-02T09:29:28;58.03;;;24.90;;
25279;SDS011;13225;47.804;12.116;2023-03-02T09:31:53;54.25;;;21.90;;
25279;SDS011;13225;47.804;12.116;2023-03-02T09:34:19;98.38;;;34.08;;
25279;SDS011;13225;47.804;12.116;2023-03-02T09:36:45;68.65;;;27.13;;
25279;SDS011;13225;47.804;12.116;2023-03-02T09:39:11;70.15;;;27.92;;
25279;SDS011;13225;47.804;12.116;2023-03-02T09:44:29;66.95;;;27.10;;
25279;SDS011;13225;47.804;12.116;2023-03-02T09:49:59;66.00;;;27.15;;
25279;SDS011;13225;47.804;12.116;2023-03-02T09:52:49;65.28;;;28.27;;
25279;SDS011;13225;47.804;12.116;2023-03-02T09:55:27;66.65;;;28.05;;
25279;SDS011;13225;47.804;12.116;2023-03-02T09:57:56;64.10;;;29.45;;
25279;SDS011;13225;47.804;12.116;2023-03-02T10:03:01;63.03;;;27.30;;
25279;SDS011;13225;47.804;12.116;2023-03-02T10:05:34;63.22;;;28.60;;
25279;SDS011;13225;47.804;12.116;2023-03-02T10:08:12;68.32;;;27.67;;
25279;SDS011;13225;47.804;12.116;2023-03-02T10:13:21;71.13;;;28.48;;
25279;SDS011;13225;47.804;12.116;2023-03-02T10:18:20;58.75;;;26.40;;
25279;SDS011;13225;47.804;12.116;2023-03-02T10:20:58;58.83;;;26.42;;
25279;SDS011;13225;47.804;12.116;2023-03-02T10:23:36;69.55;;;27.88;;
25279;SDS011;13225;47.804;12.116;2023-03-02T10:28:47;62.35;;;26.33;;
25279;SDS011;13225;47.804;12.116;2023-03-02T10:31:24;62.78;;;26.02;;
25279;SDS011;13225;47.804;12.116;2023-03-02T10:33:52;62.40;;;26.92;;
25279;SDS011;13225;47.804;12.116;2023-03-02T10:36:22;64.68;;;25.33;;
25279;SDS011;13225;47.804;12.116;2023-03-02T10:38:50;58.10;;;25.77;;
25279;SDS011;13225;47.804;12.116;2023-03-02T10:41:24;70.72;;;26.15;;
25279;SDS011;13225;47.804;12.116;2023-03-02T10:44:35;77.05;;;26.27;;
25279;SDS011;13225;47.804;12.116;2023-03-02T10:47:02;55.65;;;24.48;;
25279;SDS011;13225;47.804;12.116;2023-03-02T10:49:35;52.53;;;23.77;;
25279;SDS011;13225;47.804;12.116;2023-03-02T10:52:12;56.40;;;24.17;;
25279;SDS011;13225;47.804;12.116;2023-03-02T10:54:43;62.33;;;25.48;;
25279;SDS011;13225;47.804;12.116;2023-03-02T10:57:26;53.92;;;23.95;;
25279;SDS011;13225;47.804;12.116;2023-03-02T11:02:47;54.15;;;23.88;;
25279;SDS011;13225;47.804;12.116;2023-03-02T11:07:39;49.33;;;22.08;;
25279;SDS011;13225;47.804;12.116;2023-03-02T11:10:37;50.67;;;22.23;;
25279;SDS011;13225;47.804;12.116;2023-03-02T11:13:26;52.22;;;23.67;;
25279;SDS011;13225;47.804;12.116;2023-03-02T11:15:55;52.03;;;21.85;;
25279;SDS011;13225;47.804;12.116;2023-03-02T11:18:46;50.15;;;22.08;;
25279;SDS011;13225;47.804;12.116;2023-03-02T11:21:21;52.75;;;22.45;;
25279;SDS011;13225;47.804;12.116;2023-03-02T11:23:57;46.13;;;20.27;;
25279;SDS011;13225;47.804;12.116;2023-03-02T11:26:33;50.20;;;21.83;;
25279;SDS011;13225;47.804;12.116;2023-03-02T11:31:48;48.60;;;21.40;;
25279;SDS011;13225;47.804;12.116;2023-03-02T11:34:25;53.80;;;24.38;;
25279;SDS011;13225;47.804;12.116;2023-03-02T11:42:27;46.38;;;21.10;;
25279;SDS011;13225;47.804;12.116;2023-03-02T11:45:23;50.03;;;21.60;;
25279;SDS011;13225;47.804;12.116;2023-03-02T11:48:17;42.85;;;20.63;;
25279;SDS011;13225;47.804;12.116;2023-03-02T11:50:56;47.50;;;20.90;;
25279;SDS011;13225;47.804;12.116;2023-03-02T11:58:59;45.92;;;19.85;;
25279;SDS011;13225;47.804;12.116;2023-03-02T12:01:28;45.33;;;19.27;;
25279;SDS011;13225;47.804;12.116;2023-03-02T12:06:57;43.58;;;19.85;;
25279;SDS011;13225;47.804;12.116;2023-03-02T12:09:26;43.28;;;19.48;;
25279;SDS011;13225;47.804;12.116;2023-03-02T12:11:59;40.47;;;19.45;;
25279;SDS011;13225;47.804;12.116;2023-03-02T12:14:40;43.83;;;20.38;;
25279;SDS011;13225;47.804;12.116;2023-03-02T12:19:45;42.33;;;20.40;;
25279;SDS011;13225;47.804;12.116;2023-03-02T12:22:11;38.38;;;19.45;;
25279;SDS011;13225;47.804;12.116;2023-03-02T12:24:40;40.72;;;19.48;;
25279;SDS011;13225;47.804;12.116;2023-03-02T12:29:41;37.38;;;18.80;;
25279;SDS011;13225;47.804;12.116;2023-03-02T12:32:19;37.47;;;19.00;;
25279;SDS011;13225;47.804;12.116;2023-03-02T12:37:30;37.13;;;19.73;;
25279;SDS011;13225;47.804;12.116;2023-03-02T12:42:57;31.90;;;18.52;;
25279;SDS011;13225;47.804;12.116;2023-03-02T12:48:55;31.13;;;17.58;;
25279;SDS011;13225;47.804;12.116;2023-03-02T12:51:55;30.35;;;17.40;;
25279;SDS011;13225;47.804;12.116;2023-03-02T12:54:25;31.05;;;17.23;;
25279;SDS011;13225;47.804;12.116;2023-03-02T12:57:17;29.00;;;16.65;;
25279;SDS011;13225;47.804;12.116;2023-03-02T12:59:54;30.02;;;17.40;;
25279;SDS011;13225;47.804;12.116;2023-03-02T13:02:23;30.33;;;16.35;;
25279;SDS011;13225;47.804;12.116;2023-03-02T13:04:54;27.02;;;15.82;;
25279;SDS011;13225;47.804;12.116;2023-03-02T13:07:24;32.65;;;17.35;;
25279;SDS011;13225;47.804;12.116;2023-03-02T13:09:58;27.33;;;17.00;;
25279;SDS011;13225;47.804;12.116;2023-03-02T13:12:25;26.02;;;16.75;;
25279;SDS011;13225;47.804;12.116;2023-03-02T13:14:53;26.40;;;16.02;;
25279;SDS011;13225;47.804;12.116;2023-03-02T13:17:28;28.58;;;16.65;;
25279;SDS011;13225;47.804;12.116;2023-03-02T13:19:57;30.02;;;16.70;;
25279;SDS011;13225;47.804;12.116;2023-03-02T13:22:24;30.83;;;15.90;;
25279;SDS011;13225;47.804;12.116;2023-03-02T13:27:26;31.92;;;16.33;;
25279;SDS011;13225;47.804;12.116;2023-03-02T13:29:53;27.92;;;15.57;;
25279;SDS011;13225;47.804;12.116;2023-03-02T13:32:22;30.27;;;16.38;;
25279;SDS011;13225;47.804;12.116;2023-03-02T13:34:50;32.47;;;16.38;;
25279;SDS011;13225;47.804;12.116;2023-03-02T13:39:53;30.88;;;17.20;;
25279;SDS011;13225;47.804;12.116;2023-03-02T13:42:24;34.50;;;17.33;;
25279;SDS011;13225;47.804;12.116;2023-03-02T13:44:53;33.53;;;16.95;;
25279;SDS011;13225;47.804;12.116;2023-03-02T13:47:22;31.80;;;16.23;;
25279;SDS011;13225;47.804;12.116;2023-03-02T13:49:49;30.83;;;17.02;;
25279;SDS011;13225;47.804;12.116;2023-03-02T13:54:46;32.90;;;16.58;;
25279;SDS011;13225;47.804;12.116;2023-03-02T13:57:15;32.35;;;16.15;;
25279;SDS011;13225;47.804;12.116;2023-03-02T13:59:45;29.52;;;16.33;;
25279;SDS011;13225;47.804;12.116;2023-03-02T14:02:20;30.77;;;16.52;;
25279;SDS011;13225;47.804;12.116;2023-03-02T14:04:48;28.38;;;15.13;;
25279;SDS011;13225;47.804;12.116;2023-03-02T14:07:13;32.70;;;15.95;;
25279;SDS011;13225;47.804;12.116;2023-03-02T14:09:39;30.50;;;16.45;;
25279;SDS011;13225;47.804;12.116;2023-03-02T14:12:04;28.98;;;16.05;;
25279;SDS011;13225;47.804;12.116;2023-03-02T14:14:31;31.63;;;17.33;;
25279;SDS011;13225;47.804;12.116;2023-03-02T14:17:01;32.85;;;17.35;;
25279;SDS011;13225;47.804;12.116;2023-03-02T14:19:30;33.50;;;18.75;;
25279;SDS011;13225;47.804;12.116;2023-03-02T14:21:56;28.23;;;15.88;;
25279;SDS011;13225;47.804;12.116;2023-03-02T14:24:21;32.92;;;16.58;;
25279;SDS011;13225;47.804;12.116;2023-03-02T14:26:47;32.60;;;16.92;;
25279;SDS011;13225;47.804;12.116;2023-03-02T14:31:45;29.58;;;16.55;;
25279;SDS011;13225;47.804;12.116;2023-03-02T14:34:11;28.48;;;16.75;;
25279;SDS011;13225;47.804;12.116;2023-03-02T14:36:38;30.35;;;16.08;;
25279;SDS011;13225;47.804;12.116;2023-03-02T14:39:06;30.27;;;16.92;;
25279;SDS011;13225;47.804;12.116;2023-03-02T14:41:55;28.25;;;15.50;;
25279;SDS011;13225;47.804;12.116;2023-03-02T14:44:21;28.52;;;16.85;;
25279;SDS011;13225;47.804;12.116;2023-03-02T14:46:47;30.85;;;16.08;;
25279;SDS011;13225;47.804;12.116;2023-03-02T14:49:12;35.33;;;18.58;;
25279;SDS011;13225;47.804;12.116;2023-03-02T14:51:38;34.05;;;18.10;;
25279;SDS011;13225;47.804;12.116;2023-03-02T14:54:06;33.30;;;17.70;;
25279;SDS011;13225;47.804;12.116;2023-03-02T14:56:35;31.25;;;15.52;;
25279;SDS011;13225;47.804;12.116;2023-03-02T14:59:01;30.83;;;15.43;;
25279;SDS011;13225;47.804;12.116;2023-03-02T15:01:27;33.67;;;16.13;;
25279;SDS011;13225;47.804;12.116;2023-03-02T15:03:52;32.63;;;16.70;;
25279;SDS011;13225;47.804;12.116;2023-03-02T15:08:52;28.02;;;15.23;;
25279;SDS011;13225;47.804;12.116;2023-03-02T15:11:18;29.35;;;15.02;;
25279;SDS011;13225;47.804;12.116;2023-03-02T15:13:44;29.55;;;14.90;;
25279;SDS011;13225;47.804;12.116;2023-03-02T15:16:10;28.67;;;15.15;;
25279;SDS011;13225;47.804;12.116;2023-03-02T15:18:38;32.47;;;16.08;;
25279;SDS011;13225;47.804;12.116;2023-03-02T15:21:04;32.22;;;16.60;;
25279;SDS011;13225;47.804;12.116;2023-03-02T15:23:30;30.55;;;15.68;;
25279;SDS011;13225;47.804;12.116;2023-03-02T15:26:00;32.60;;;16.27;;
25279;SDS011;13225;47.804;12.116;2023-03-02T15:28:26;30.42;;;16.67;;
25279;SDS011;13225;47.804;12.116;2023-03-02T15:30:52;29.15;;;16.40;;
25279;SDS011;13225;47.804;12.116;2023-03-02T15:33:19;32.22;;;17.55;;
25279;SDS011;13225;47.804;12.116;2023-03-02T15:35:45;34.60;;;17.05;;